Time;durP1;ratioP1;P1;durP2;ratioP2;P2;SDS_P1;SDS_P2;PMS_P1;PMS_P2;Temp;Humidity;BMP_temperature;BMP_pressure;BME280_temperature;BME280_humidity;BME280_pressure;Samples;Min_cycle;Max_cycle;Signal;HPM_P1;HPM_P2
2021/07/25 00:00:32;;;;;;;65.20;45.00;;;;;;;;;;4952723;28;20122;-69
2021/07/25 00:02:58;;;;;;;65.75;44.30;;;;;;;;;;4952397;28;20067;-69
2021/07/25 00:05:24;;;;;;;68.50;45.95;;;;;;;;;;4953012;28;20389;-69
2021/07/25 00:07:50;;;;;;;70.65;46.50;;;;;;;;;;4952955;28;20023;-69
2021/07/25 00:10:16;;;;;;;71.85;46.47;;;;;;;;;;4952470;28;20493;-70
2021/07/25 00:12:42;;;;;;;67.75;45.17;;;;;;;;;;4951179;28;20050;-69
2021/07/25 00:15:08;;;;;;;72.13;47.80;;;;;;;;;;4950153;28;20106;-69
2021/07/25 00:17:34;;;;;;;70.25;47.30;;;;;;;;;;4948472;28;20110;-70
2021/07/25 00:20:01;;;;;;;68.70;46.90;;;;;;;;;;4951555;28;20623;-69
2021/07/25 00:22:27;;;;;;;71.13;45.53;;;;;;;;;;4951904;28;20043;-69
2021/07/25 00:25:07;;;;;;;76.68;48.33;;;;;;;;;;4951358;28;20031;-69
2021/07/25 00:27:34;;;;;;;68.63;46.08;;;;;;;;;;4947528;28;20050;-69
2021/07/25 00:30:00;;;;;;;67.38;45.78;;;;;;;;;;4952333;28;20015;-70
2021/07/25 00:32:26;;;;;;;73.15;47.67;;;;;;;;;;4952586;28;20483;-69
2021/07/25 00:34:53;;;;;;;78.00;49.72;;;;;;;;;;4952262;28;20031;-69
2021/07/25 00:37:20;;;;;;;73.05;47.22;;;;;;;;;;4952294;28;20031;-69
2021/07/25 00:39:46;;;;;;;73.53;46.28;;;;;;;;;;4952406;28;20098;-69
2021/07/25 00:42:12;;;;;;;72.57;46.72;;;;;;;;;;4948159;28;20485;-69
2021/07/25 00:44:38;;;;;;;78.80;49.15;;;;;;;;;;4945296;28;20024;-69
2021/07/25 00:47:04;;;;;;;76.07;50.30;;;;;;;;;;4951744;28;20027;-69
2021/07/25 00:49:30;;;;;;;73.45;47.97;;;;;;;;;;4950230;28;20027;-69
2021/07/25 00:51:56;;;;;;;82.13;53.25;;;;;;;;;;4950791;28;20027;-69
2021/07/25 00:54:22;;;;;;;82.63;51.80;;;;;;;;;;4950874;28;20114;-69
2021/07/25 00:56:48;;;;;;;70.75;48.30;;;;;;;;;;4950541;28;20019;-70
2021/07/25 00:59:14;;;;;;;80.28;50.90;;;;;;;;;;4950711;28;20023;-69
2021/07/25 01:01:40;;;;;;;88.32;52.38;;;;;;;;;;4951855;28;20019;-70
2021/07/25 01:04:25;;;;;;;83.40;51.88;;;;;;;;;;4951981;28;20609;-69
2021/07/25 01:07:14;;;;;;;79.22;50.63;;;;;;;;;;4951818;28;20365;-70
2021/07/25 01:09:47;;;;;;;74.57;49.42;;;;;;;;;;4953745;28;20071;-70
2021/07/25 01:12:25;;;;;;;77.32;48.30;;;;;;;;;;4952011;28;20020;-69
2021/07/25 01:14:53;;;;;;;78.82;50.20;;;;;;;;;;4951220;28;20029;-69
2021/07/25 01:17:34;;;;;;;74.32;50.20;;;;;;;;;;4951599;28;20110;-70
2021/07/25 01:20:01;;;;;;;78.32;49.85;;;;;;;;;;4951975;28;20082;-69
2021/07/25 01:22:28;;;;;;;80.60;52.30;;;;;;;;;;4952237;28;20023;-69
2021/07/25 01:24:55;;;;;;;83.35;51.75;;;;;;;;;;4946584;28;20023;-69
2021/07/25 01:27:29;;;;;;;74.60;49.20;;;;;;;;;;4949500;28;20042;-69
2021/07/25 01:29:56;;;;;;;78.45;50.67;;;;;;;;;;4951507;28;20066;-70
2021/07/25 01:32:22;;;;;;;77.60;51.60;;;;;;;;;;4950622;28;20023;-69
2021/07/25 01:34:49;;;;;;;80.45;51.83;;;;;;;;;;4951953;28;20278;-69
2021/07/25 01:37:16;;;;;;;79.78;51.35;;;;;;;;;;4944863;28;20098;-70
2021/07/25 01:39:42;;;;;;;77.78;49.17;;;;;;;;;;4951645;28;20034;-69
2021/07/25 01:42:08;;;;;;;78.85;51.20;;;;;;;;;;4951747;28;20020;-69
2021/07/25 01:44:34;;;;;;;73.78;50.33;;;;;;;;;;4949855;28;20501;-69
2021/07/25 01:47:00;;;;;;;78.20;49.38;;;;;;;;;;4950359;29;20019;-69
2021/07/25 01:49:26;;;;;;;80.05;50.03;;;;;;;;;;4945097;28;20031;-69
2021/07/25 01:51:52;;;;;;;80.90;52.53;;;;;;;;;;4947881;28;20501;-70
2021/07/25 01:54:18;;;;;;;84.82;53.40;;;;;;;;;;4951385;28;20550;-69
2021/07/25 01:56:44;;;;;;;91.25;55.47;;;;;;;;;;4950994;28;20507;-69
2021/07/25 01:59:10;;;;;;;85.05;53.67;;;;;;;;;;4949315;28;20389;-70
2021/07/25 02:01:36;;;;;;;80.90;54.17;;;;;;;;;;4952314;28;20044;-70
2021/07/25 02:04:02;;;;;;;83.85;52.67;;;;;;;;;;4959287;28;20413;-70
2021/07/25 02:06:28;;;;;;;82.43;52.85;;;;;;;;;;4953974;28;20114;-70
2021/07/25 02:08:54;;;;;;;79.20;52.80;;;;;;;;;;4955725;28;20090;-70
2021/07/25 02:11:20;;;;;;;86.75;54.58;;;;;;;;;;4951883;28;20103;-69
2021/07/25 02:13:46;;;;;;;85.28;53.10;;;;;;;;;;4951628;28;20572;-69
2021/07/25 02:16:11;;;;;;;88.28;53.55;;;;;;;;;;4949306;28;20031;-70
2021/07/25 02:18:37;;;;;;;79.90;49.72;;;;;;;;;;4951763;28;20102;-69
2021/07/25 02:21:03;;;;;;;91.20;54.40;;;;;;;;;;4950710;28;20118;-69
2021/07/25 02:23:29;;;;;;;83.70;50.75;;;;;;;;;;4947399;28;20063;-69
2021/07/25 02:25:55;;;;;;;91.45;53.30;;;;;;;;;;4950299;28;20047;-70
2021/07/25 02:28:21;;;;;;;94.85;56.17;;;;;;;;;;4954472;28;20035;-69
2021/07/25 02:30:47;;;;;;;99.10;59.22;;;;;;;;;;4948190;28;20097;-69
2021/07/25 02:33:13;;;;;;;85.70;54.92;;;;;;;;;;4954928;28;20654;-69
2021/07/25 02:35:39;;;;;;;89.82;53.33;;;;;;;;;;4950879;28;20476;-69
2021/07/25 02:38:05;;;;;;;87.10;56.28;;;;;;;;;;4954186;28;20106;-69
2021/07/25 02:40:31;;;;;;;89.78;55.13;;;;;;;;;;4952017;28;20098;-69
2021/07/25 02:42:57;;;;;;;86.95;53.15;;;;;;;;;;4954036;28;20039;-69
2021/07/25 02:45:22;;;;;;;85.30;52.80;;;;;;;;;;4954496;28;20430;-69
2021/07/25 02:47:48;;;;;;;94.85;54.53;;;;;;;;;;4953913;28;20082;-69
2021/07/25 02:50:14;;;;;;;85.30;54.22;;;;;;;;;;4954850;28;20066;-69
2021/07/25 02:52:40;;;;;;;87.70;53.90;;;;;;;;;;4950941;29;20015;-69
2021/07/25 02:55:07;;;;;;;86.18;54.05;;;;;;;;;;4954629;28;20042;-69
2021/07/25 02:57:33;;;;;;;101.18;58.95;;;;;;;;;;4950589;28;20027;-69
2021/07/25 02:59:58;;;;;;;89.28;53.70;;;;;;;;;;4954029;29;20027;-69
2021/07/25 03:02:24;;;;;;;89.00;54.50;;;;;;;;;;4953632;28;20031;-69
2021/07/25 03:04:50;;;;;;;93.30;56.35;;;;;;;;;;4954192;28;20023;-69
2021/07/25 03:07:16;;;;;;;91.07;55.95;;;;;;;;;;4953648;28;20031;-69
2021/07/25 03:09:42;;;;;;;88.30;54.08;;;;;;;;;;4954722;28;20060;-69
2021/07/25 03:12:08;;;;;;;91.43;55.28;;;;;;;;;;4953489;28;20387;-69
2021/07/25 03:14:34;;;;;;;100.80;57.85;;;;;;;;;;4953536;28;20023;-70
2021/07/25 03:17:00;;;;;;;90.15;55.17;;;;;;;;;;4953881;28;20082;-69
2021/07/25 03:19:26;;;;;;;88.63;55.55;;;;;;;;;;4953769;28;20067;-69
2021/07/25 03:21:52;;;;;;;93.18;55.40;;;;;;;;;;4953165;28;20555;-69
2021/07/25 03:24:18;;;;;;;96.30;57.65;;;;;;;;;;4948676;28;20042;-69
2021/07/25 03:26:44;;;;;;;98.15;58.70;;;;;;;;;;4948517;28;20031;-69
2021/07/25 03:29:10;;;;;;;94.25;57.55;;;;;;;;;;4953828;28;20027;-69
2021/07/25 03:31:35;;;;;;;105.65;61.97;;;;;;;;;;4953581;28;20114;-69
2021/07/25 03:34:01;;;;;;;101.72;61.70;;;;;;;;;;4952945;28;20101;-69
2021/07/25 03:36:28;;;;;;;112.20;63.40;;;;;;;;;;4953244;28;20035;-69
2021/07/25 03:38:54;;;;;;;106.53;60.25;;;;;;;;;;4950362;28;20026;-69
2021/07/25 03:41:20;;;;;;;105.90;61.22;;;;;;;;;;4953261;28;20034;-69
2021/07/25 03:43:46;;;;;;;116.22;65.30;;;;;;;;;;4950973;28;20039;-69
2021/07/25 03:46:12;;;;;;;115.20;65.07;;;;;;;;;;4953456;28;20106;-70
2021/07/25 03:48:38;;;;;;;110.60;62.03;;;;;;;;;;4945142;28;20062;-70
2021/07/25 03:51:05;;;;;;;114.75;61.75;;;;;;;;;;4953066;28;20034;-69
2021/07/25 03:53:33;;;;;;;128.65;69.20;;;;;;;;;;4953621;28;20031;-69
2021/07/25 03:55:59;;;;;;;110.40;65.18;;;;;;;;;;4950535;28;20034;-70
2021/07/25 03:58:25;;;;;;;127.38;67.75;;;;;;;;;;4953639;28;20028;-70
2021/07/25 04:00:51;;;;;;;114.68;65.35;;;;;;;;;;4945008;28;20486;-69
2021/07/25 04:03:17;;;;;;;112.75;65.22;;;;;;;;;;4952070;28;20038;-69
2021/07/25 04:05:42;;;;;;;116.88;67.18;;;;;;;;;;4950997;28;20388;-69
2021/07/25 04:08:10;;;;;;;112.80;67.53;;;;;;;;;;4941323;28;20035;-69
2021/07/25 04:10:39;;;;;;;115.00;64.20;;;;;;;;;;4952918;28;20015;-69
2021/07/25 04:13:05;;;;;;;118.47;66.65;;;;;;;;;;4952729;28;20327;-69
2021/07/25 04:15:31;;;;;;;107.78;63.38;;;;;;;;;;4947589;28;20187;-69
2021/07/25 04:17:57;;;;;;;120.15;66.63;;;;;;;;;;4950455;28;20449;-69
2021/07/25 04:20:23;;;;;;;112.75;67.28;;;;;;;;;;4952752;28;20094;-69
2021/07/25 04:22:49;;;;;;;108.15;63.17;;;;;;;;;;4949750;28;20110;-69
2021/07/25 04:25:15;;;;;;;103.00;62.20;;;;;;;;;;4948363;28;20110;-69
2021/07/25 04:27:41;;;;;;;106.68;61.97;;;;;;;;;;4949344;28;20452;-69
2021/07/25 04:30:07;;;;;;;113.15;63.35;;;;;;;;;;4944315;28;20031;-69
2021/07/25 04:32:33;;;;;;;104.72;63.45;;;;;;;;;;4948370;28;20481;-69
2021/07/25 04:34:59;;;;;;;100.63;61.05;;;;;;;;;;4950950;28;20027;-69
2021/07/25 04:37:30;;;;;;;107.80;64.30;;;;;;;;;;4951955;28;20020;-69
2021/07/25 04:39:56;;;;;;;104.65;62.65;;;;;;;;;;4952469;28;20038;-69
2021/07/25 04:42:23;;;;;;;103.90;61.55;;;;;;;;;;4952722;28;20094;-69
2021/07/25 04:44:54;;;;;;;103.28;59.85;;;;;;;;;;4952650;28;20048;-69
2021/07/25 04:47:23;;;;;;;98.55;58.05;;;;;;;;;;4947719;28;20058;-69
2021/07/25 04:49:57;;;;;;;102.75;62.17;;;;;;;;;;4949113;28;20415;-69
2021/07/25 04:52:23;;;;;;;91.25;55.05;;;;;;;;;;4951885;28;20477;-69
2021/07/25 04:54:50;;;;;;;93.00;58.35;;;;;;;;;;4951755;29;20102;-69
2021/07/25 04:57:18;;;;;;;92.20;55.38;;;;;;;;;;4951667;28;20057;-69
2021/07/25 04:59:47;;;;;;;90.32;54.08;;;;;;;;;;4952312;28;20038;-70
2021/07/25 05:02:15;;;;;;;94.18;53.78;;;;;;;;;;4952039;28;20030;-69
2021/07/25 05:04:41;;;;;;;89.28;53.28;;;;;;;;;;4951791;28;20429;-69
2021/07/25 05:07:10;;;;;;;82.50;52.30;;;;;;;;;;4952180;28;20032;-69
2021/07/25 05:09:36;;;;;;;80.30;49.97;;;;;;;;;;4946963;28;20028;-69
2021/07/25 05:12:04;;;;;;;81.93;48.03;;;;;;;;;;4951520;28;20020;-69
2021/07/25 05:14:32;;;;;;;75.70;47.67;;;;;;;;;;4947693;28;20058;-69
2021/07/25 05:17:04;;;;;;;76.30;46.40;;;;;;;;;;4943174;28;20028;-69
2021/07/25 05:19:39;;;;;;;78.78;47.67;;;;;;;;;;4952273;28;20035;-69
2021/07/25 05:22:08;;;;;;;74.82;45.00;;;;;;;;;;4948569;28;20110;-69
2021/07/25 05:24:38;;;;;;;74.23;45.63;;;;;;;;;;4952193;28;20034;-69
2021/07/25 05:27:05;;;;;;;70.60;44.92;;;;;;;;;;4943960;28;20034;-69
2021/07/25 05:29:32;;;;;;;67.38;43.40;;;;;;;;;;4947239;28;20019;-69
2021/07/25 05:31:58;;;;;;;69.88;44.90;;;;;;;;;;4950219;28;20075;-69
2021/07/25 05:34:24;;;;;;;63.47;41.83;;;;;;;;;;4952278;28;20023;-69
2021/07/25 05:36:49;;;;;;;66.93;42.80;;;;;;;;;;4952351;28;20554;-70
2021/07/25 05:39:17;;;;;;;62.63;40.20;;;;;;;;;;4949143;28;20102;-69
2021/07/25 05:41:42;;;;;;;61.92;38.28;;;;;;;;;;4951662;28;20015;-69
2021/07/25 05:44:08;;;;;;;50.35;33.03;;;;;;;;;;4951141;28;20170;-69
2021/07/25 05:46:34;;;;;;;46.15;30.15;;;;;;;;;;4951651;28;20517;-69
2021/07/25 05:49:00;;;;;;;45.28;31.10;;;;;;;;;;4951069;28;20079;-69
2021/07/25 05:51:26;;;;;;;41.47;29.13;;;;;;;;;;4948100;28;20023;-69
2021/07/25 05:53:52;;;;;;;40.28;27.23;;;;;;;;;;4945765;28;20031;-69
2021/07/25 05:56:18;;;;;;;34.63;24.05;;;;;;;;;;4947434;29;20019;-69
2021/07/25 05:58:44;;;;;;;32.30;22.60;;;;;;;;;;4945953;28;20093;-69
2021/07/25 06:01:10;;;;;;;32.65;21.10;;;;;;;;;;4942204;28;20323;-69
2021/07/25 06:03:36;;;;;;;28.10;17.75;;;;;;;;;;4955382;28;20481;-70
2021/07/25 06:06:02;;;;;;;25.17;16.50;;;;;;;;;;4953640;28;20032;-70
2021/07/25 06:08:27;;;;;;;22.13;13.98;;;;;;;;;;4951442;28;20031;-69
2021/07/25 06:10:53;;;;;;;19.88;14.30;;;;;;;;;;4955002;28;20114;-69
2021/07/25 06:13:20;;;;;;;22.98;13.82;;;;;;;;;;4954868;28;20024;-70
2021/07/25 06:15:47;;;;;;;18.25;12.85;;;;;;;;;;4954973;28;20030;-69
2021/07/25 06:18:13;;;;;;;17.60;12.20;;;;;;;;;;4948277;28;20027;-69
2021/07/25 06:20:39;;;;;;;21.73;12.57;;;;;;;;;;4950963;28;20038;-70
2021/07/25 06:23:06;;;;;;;15.80;10.95;;;;;;;;;;4956798;28;20023;-70
2021/07/25 06:25:33;;;;;;;17.52;12.13;;;;;;;;;;4948388;28;20032;-70
2021/07/25 06:28:00;;;;;;;16.58;11.45;;;;;;;;;;4954113;29;20035;-70
2021/07/25 06:30:26;;;;;;;16.02;10.45;;;;;;;;;;4950928;28;20066;-70
2021/07/25 06:32:55;;;;;;;17.35;10.23;;;;;;;;;;4954110;28;20490;-70
2021/07/25 06:35:22;;;;;;;16.58;10.13;;;;;;;;;;4954717;28;20105;-70
2021/07/25 06:37:48;;;;;;;17.08;10.57;;;;;;;;;;4955319;28;20113;-71
2021/07/25 06:40:15;;;;;;;13.45;9.88;;;;;;;;;;4954182;28;20155;-70
2021/07/25 06:42:41;;;;;;;14.60;10.85;;;;;;;;;;4948729;28;20455;-70
2021/07/25 06:45:07;;;;;;;17.42;11.10;;;;;;;;;;4954224;28;20027;-70
2021/07/25 06:47:33;;;;;;;14.52;10.13;;;;;;;;;;4948112;28;20489;-70
2021/07/25 06:49:59;;;;;;;14.38;9.43;;;;;;;;;;4952981;29;20035;-70
2021/07/25 06:52:24;;;;;;;13.50;9.52;;;;;;;;;;4951765;28;20030;-70
2021/07/25 06:54:50;;;;;;;12.85;10.30;;;;;;;;;;4953362;28;20027;-70
2021/07/25 06:57:16;;;;;;;14.40;10.27;;;;;;;;;;4953359;28;20505;-70
2021/07/25 06:59:42;;;;;;;17.73;11.05;;;;;;;;;;4952968;28;20419;-70
2021/07/25 07:02:08;;;;;;;14.10;10.05;;;;;;;;;;4953492;28;20027;-70
2021/07/25 07:04:34;;;;;;;13.77;9.77;;;;;;;;;;4950693;28;20539;-70
2021/07/25 07:07:00;;;;;;;20.33;11.50;;;;;;;;;;4953845;28;20027;-70
2021/07/25 07:09:26;;;;;;;14.52;10.15;;;;;;;;;;4951465;28;20094;-71
2021/07/25 07:11:52;;;;;;;14.65;11.48;;;;;;;;;;4952708;28;20059;-71
2021/07/25 07:14:18;;;;;;;16.67;10.07;;;;;;;;;;4952371;28;20039;-71
2021/07/25 07:16:44;;;;;;;17.67;10.45;;;;;;;;;;4952835;28;20030;-71
2021/07/25 07:19:10;;;;;;;15.75;10.38;;;;;;;;;;4953705;28;20027;-71
2021/07/25 07:21:35;;;;;;;14.10;9.98;;;;;;;;;;4952981;28;20031;-71
2021/07/25 07:24:01;;;;;;;12.48;10.15;;;;;;;;;;4953641;28;20193;-71
2021/07/25 07:26:27;;;;;;;14.77;10.32;;;;;;;;;;4953260;28;20114;-71
2021/07/25 07:28:53;;;;;;;15.00;10.73;;;;;;;;;;4952511;28;20031;-71
2021/07/25 07:31:19;;;;;;;15.27;11.20;;;;;;;;;;4953552;28;20099;-71
2021/07/25 07:33:45;;;;;;;13.55;11.05;;;;;;;;;;4951385;28;20042;-70
2021/07/25 07:36:11;;;;;;;14.85;10.88;;;;;;;;;;4952387;28;20078;-70
2021/07/25 07:38:37;;;;;;;15.30;11.20;;;;;;;;;;4950412;28;20085;-70
2021/07/25 07:41:03;;;;;;;16.70;11.13;;;;;;;;;;4952694;28;20035;-70
2021/07/25 07:43:29;;;;;;;12.90;10.48;;;;;;;;;;4945866;28;20463;-70
2021/07/25 07:45:55;;;;;;;14.85;10.27;;;;;;;;;;4951764;28;20086;-69
2021/07/25 07:48:21;;;;;;;15.32;10.52;;;;;;;;;;4954287;28;20022;-73
2021/07/25 07:50:47;;;;;;;15.00;11.70;;;;;;;;;;4952735;28;20035;-71
2021/07/25 07:53:14;;;;;;;18.40;11.73;;;;;;;;;;4950390;28;20186;-71
2021/07/25 07:55:40;;;;;;;16.63;11.15;;;;;;;;;;4971273;28;20034;-71
2021/07/25 07:58:05;;;;;;;12.88;10.00;;;;;;;;;;4971954;28;20022;-71
2021/07/25 08:00:31;;;;;;;14.48;10.95;;;;;;;;;;4972141;28;20018;-71
2021/07/25 08:02:57;;;;;;;16.20;10.35;;;;;;;;;;4965913;28;20039;-71
2021/07/25 08:05:23;;;;;;;16.15;10.50;;;;;;;;;;4965993;28;20673;-71
2021/07/25 08:07:50;;;;;;;15.15;10.05;;;;;;;;;;4970689;28;20026;-71
2021/07/25 08:10:16;;;;;;;12.68;9.57;;;;;;;;;;4971556;28;20030;-70
2021/07/25 08:12:42;;;;;;;16.67;9.48;;;;;;;;;;4970436;28;20113;-70
2021/07/25 08:15:09;;;;;;;14.38;9.25;;;;;;;;;;4971673;28;20555;-70
2021/07/25 08:17:35;;;;;;;13.10;10.23;;;;;;;;;;4972114;28;20106;-70
2021/07/25 08:20:01;;;;;;;13.70;9.73;;;;;;;;;;4970614;28;20114;-70
2021/07/25 08:22:27;;;;;;;14.05;9.27;;;;;;;;;;4967254;28;20042;-70
2021/07/25 08:24:53;;;;;;;14.48;9.80;;;;;;;;;;4967095;28;20027;-70
2021/07/25 08:27:19;;;;;;;10.88;9.48;;;;;;;;;;4969516;28;20054;-70
2021/07/25 08:29:45;;;;;;;12.82;9.73;;;;;;;;;;4971151;28;20035;-71
2021/07/25 08:32:12;;;;;;;13.38;10.98;;;;;;;;;;4967465;28;20484;-70
2021/07/25 08:34:38;;;;;;;16.40;10.23;;;;;;;;;;4970493;28;20030;-71
2021/07/25 08:37:04;;;;;;;12.63;9.52;;;;;;;;;;4970552;28;20030;-71
2021/07/25 08:39:30;;;;;;;13.93;8.85;;;;;;;;;;4966588;28;20031;-71
2021/07/25 08:42:02;;;;;;;10.50;8.23;;;;;;;;;;4962265;28;20504;-71
2021/07/25 08:44:28;;;;;;;11.23;8.80;;;;;;;;;;4967616;28;20031;-71
2021/07/25 08:46:55;;;;;;;12.10;8.50;;;;;;;;;;4966772;28;20042;-71
2021/07/25 08:49:26;;;;;;;13.05;8.85;;;;;;;;;;4971590;28;20365;-71
2021/07/25 08:51:59;;;;;;;12.02;9.43;;;;;;;;;;4970516;28;20031;-72
2021/07/25 08:54:44;;;;;;;11.45;9.30;;;;;;;;;;4971692;28;20019;-71
2021/07/25 08:57:13;;;;;;;12.02;9.13;;;;;;;;;;4969977;28;20038;-75
2021/07/25 08:59:40;;;;;;;12.68;9.25;;;;;;;;;;4968963;28;20022;-71
2021/07/25 09:02:08;;;;;;;10.27;8.25;;;;;;;;;;4970103;28;20107;-72
2021/07/25 09:04:34;;;;;;;12.25;9.25;;;;;;;;;;4966222;28;20023;-72
2021/07/25 09:07:02;;;;;;;12.88;9.48;;;;;;;;;;4969774;28;20039;-74
2021/07/25 09:09:28;;;;;;;10.43;7.72;;;;;;;;;;4966592;28;20027;-71
2021/07/25 09:11:54;;;;;;;12.48;8.43;;;;;;;;;;4969056;28;20114;-71
2021/07/25 09:14:20;;;;;;;14.15;8.43;;;;;;;;;;4966883;28;20116;-71
2021/07/25 09:16:46;;;;;;;11.48;7.85;;;;;;;;;;4965613;28;20497;-71
2021/07/25 09:19:12;;;;;;;13.32;8.70;;;;;;;;;;4968435;28;20034;-71
2021/07/25 09:21:40;;;;;;;11.02;8.20;;;;;;;;;;4965161;28;20093;-71
2021/07/25 09:24:24;;;;;;;15.02;8.13;;;;;;;;;;4968934;28;20058;-70
2021/07/25 09:26:58;;;;;;;10.63;7.50;;;;;;;;;;4967220;28;20024;-70
2021/07/25 09:29:25;;;;;;;10.80;7.43;;;;;;;;;;4970887;28;20025;-70
2021/07/25 09:31:51;;;;;;;12.95;7.43;;;;;;;;;;4969820;28;20380;-70
2021/07/25 09:34:36;;;;;;;13.00;8.20;;;;;;;;;;4967782;28;20038;-70
2021/07/25 09:37:13;;;;;;;12.57;7.97;;;;;;;;;;4973389;28;20026;-70
2021/07/25 09:39:40;;;;;;;14.13;10.77;;;;;;;;;;4973441;28;20061;-70
2021/07/25 09:42:07;;;;;;;14.02;10.15;;;;;;;;;;4972282;28;20031;-70
2021/07/25 09:44:44;;;;;;;13.95;10.55;;;;;;;;;;4968582;28;20030;-70
2021/07/25 09:47:23;;;;;;;13.18;10.40;;;;;;;;;;4972278;28;20026;-70
2021/07/25 09:49:49;;;;;;;14.68;11.27;;;;;;;;;;4972429;28;20019;-71
2021/07/25 09:52:15;;;;;;;14.02;9.40;;;;;;;;;;4971988;28;20034;-70
2021/07/25 09:54:41;;;;;;;14.00;9.27;;;;;;;;;;4971556;28;20027;-71
2021/07/25 09:57:13;;;;;;;17.17;10.55;;;;;;;;;;4973891;28;20022;-70
2021/07/25 09:59:39;;;;;;;13.93;10.82;;;;;;;;;;4971173;28;20081;-70
2021/07/25 10:02:05;;;;;;;15.93;13.70;;;;;;;;;;4974583;28;20030;-71
2021/07/25 10:04:31;;;;;;;22.67;15.35;;;;;;;;;;4974187;28;20023;-71
2021/07/25 10:07:01;;;;;;;23.75;16.38;;;;;;;;;;4974642;28;20022;-71
2021/07/25 10:09:27;;;;;;;23.85;16.40;;;;;;;;;;4970998;28;20022;-71
2021/07/25 10:12:04;;;;;;;23.55;16.90;;;;;;;;;;4973940;28;20053;-70
2021/07/25 10:14:32;;;;;;;20.77;15.75;;;;;;;;;;4974244;28;20061;-71
2021/07/25 10:17:01;;;;;;;24.27;17.13;;;;;;;;;;4974354;28;20113;-71
2021/07/25 10:19:36;;;;;;;27.20;17.33;;;;;;;;;;4974126;28;20019;-71
2021/07/25 10:22:07;;;;;;;26.08;18.10;;;;;;;;;;4967447;28;20035;-70
2021/07/25 10:24:34;;;;;;;27.35;19.27;;;;;;;;;;4973487;28;20472;-70
2021/07/25 10:27:00;;;;;;;26.23;17.73;;;;;;;;;;4974069;28;20433;-70
2021/07/25 10:29:28;;;;;;;28.80;17.98;;;;;;;;;;4974160;28;20027;-70
2021/07/25 10:31:54;;;;;;;29.23;19.42;;;;;;;;;;4973914;28;20415;-70
2021/07/25 10:34:24;;;;;;;25.75;19.85;;;;;;;;;;4974346;28;20030;-70
2021/07/25 10:36:51;;;;;;;28.55;20.88;;;;;;;;;;4973823;28;20108;-70
2021/07/25 10:39:17;;;;;;;32.28;22.27;;;;;;;;;;4974000;28;20031;-70
2021/07/25 10:41:46;;;;;;;44.45;23.73;;;;;;;;;;4973921;28;20023;-70
2021/07/25 10:44:12;;;;;;;36.38;24.60;;;;;;;;;;4974119;28;20154;-70
2021/07/25 10:46:37;;;;;;;60.47;27.67;;;;;;;;;;4967815;28;20517;-70
2021/07/25 10:49:04;;;;;;;37.30;27.30;;;;;;;;;;4973734;28;20051;-70
2021/07/25 10:51:31;;;;;;;46.58;27.67;;;;;;;;;;4973858;28;20460;-70
2021/07/25 10:54:15;;;;;;;39.80;28.30;;;;;;;;;;4973434;28;20113;-70
2021/07/25 10:56:58;;;;;;;42.17;28.83;;;;;;;;;;4973103;28;20023;-70
2021/07/25 10:59:42;;;;;;;38.53;30.65;;;;;;;;;;4968310;28;20015;-70
2021/07/25 11:02:12;;;;;;;39.33;30.52;;;;;;;;;;4973803;28;20015;-70
2021/07/25 11:04:51;;;;;;;45.80;30.98;;;;;;;;;;4968673;28;20542;-70
2021/07/25 11:07:23;;;;;;;47.45;33.05;;;;;;;;;;4971307;28;20027;-71
2021/07/25 11:09:55;;;;;;;48.33;32.35;;;;;;;;;;4971772;28;20019;-70
2021/07/25 11:12:20;;;;;;;50.05;32.25;;;;;;;;;;4973771;28;20114;-70
2021/07/25 11:14:56;;;;;;;42.95;32.08;;;;;;;;;;4972898;28;20496;-70
2021/07/25 11:17:40;;;;;;;43.83;31.65;;;;;;;;;;4965537;28;20033;-70
2021/07/25 11:20:06;;;;;;;42.75;30.48;;;;;;;;;;4973202;28;20034;-70
2021/07/25 11:22:42;;;;;;;46.83;33.40;;;;;;;;;;4973893;28;20029;-70
2021/07/25 11:25:08;;;;;;;46.20;33.25;;;;;;;;;;4967227;28;20077;-71
2021/07/25 11:27:46;;;;;;;43.00;33.50;;;;;;;;;;4973278;28;20058;-70
2021/07/25 11:30:12;;;;;;;44.97;33.72;;;;;;;;;;4968126;28;20018;-70
2021/07/25 11:32:38;;;;;;;49.28;34.58;;;;;;;;;;4972068;28;20099;-70
2021/07/25 11:35:05;;;;;;;48.30;34.40;;;;;;;;;;4973094;28;20038;-70
2021/07/25 11:37:38;;;;;;;43.38;33.15;;;;;;;;;;4973580;28;20035;-71
2021/07/25 11:40:04;;;;;;;44.78;34.03;;;;;;;;;;4973126;28;20027;-71
2021/07/25 11:42:30;;;;;;;47.22;34.20;;;;;;;;;;4966594;28;20477;-70
2021/07/25 11:45:01;;;;;;;45.05;34.50;;;;;;;;;;4969458;28;20501;-70
2021/07/25 11:47:27;;;;;;;45.20;34.30;;;;;;;;;;4972765;28;20022;-70
2021/07/25 11:49:54;;;;;;;41.47;32.25;;;;;;;;;;4970044;28;20042;-70
2021/07/25 11:52:20;;;;;;;44.78;35.00;;;;;;;;;;4967977;28;20075;-71
2021/07/25 11:54:46;;;;;;;44.95;33.78;;;;;;;;;;4969822;28;20390;-70
2021/07/25 11:57:15;;;;;;;47.42;34.28;;;;;;;;;;4971794;28;20039;-70
2021/07/25 11:59:48;;;;;;;47.30;34.60;;;;;;;;;;4971845;28;20480;-70
2021/07/25 12:02:21;;;;;;;46.22;34.75;;;;;;;;;;4971539;28;20023;-71
2021/07/25 12:04:47;;;;;;;42.85;33.45;;;;;;;;;;4969356;28;20018;-70
2021/07/25 12:07:16;;;;;;;47.05;33.15;;;;;;;;;;4971227;28;20551;-70
2021/07/25 12:09:43;;;;;;;41.05;32.05;;;;;;;;;;4967529;28;20065;-70
2021/07/25 12:12:11;;;;;;;41.47;30.95;;;;;;;;;;4972458;28;20019;-70
2021/07/25 12:14:38;;;;;;;41.22;31.65;;;;;;;;;;4971962;28;20133;-70
2021/07/25 12:17:05;;;;;;;37.45;29.50;;;;;;;;;;4972091;28;20065;-70
2021/07/25 12:19:35;;;;;;;34.97;29.58;;;;;;;;;;4972005;28;20019;-70
2021/07/25 12:22:08;;;;;;;32.75;25.30;;;;;;;;;;4969012;28;20456;-70
2021/07/25 12:24:35;;;;;;;30.30;24.55;;;;;;;;;;4966920;28;20110;-70
2021/07/25 12:27:02;;;;;;;30.67;26.38;;;;;;;;;;4969867;28;20039;-71
2021/07/25 12:29:41;;;;;;;42.80;28.48;;;;;;;;;;4972083;28;20499;-70
2021/07/25 12:32:22;;;;;;;27.85;24.20;;;;;;;;;;4971355;28;20479;-71
2021/07/25 12:34:49;;;;;;;26.55;20.45;;;;;;;;;;4971793;28;20019;-71
2021/07/25 12:37:25;;;;;;;22.85;18.60;;;;;;;;;;4969843;28;20023;-71
2021/07/25 12:40:06;;;;;;;21.30;16.60;;;;;;;;;;4971951;28;20034;-71
2021/07/25 12:42:39;;;;;;;19.27;17.13;;;;;;;;;;4965628;28;20031;-71
2021/07/25 12:45:25;;;;;;;21.75;17.80;;;;;;;;;;4971657;28;20077;-71
2021/07/25 12:48:07;;;;;;;21.73;17.40;;;;;;;;;;4967982;28;20027;-71
2021/07/25 12:53:40;;;;;;;22.50;18.38;;;;;;;;;;4972119;28;20057;-71
2021/07/25 12:56:07;;;;;;;;;;;;;;;;;;4968619;28;20026;-71
2021/07/25 12:58:35;;;;;;;25.30;19.75;;;;;;;;;;4971966;28;20475;-71
2021/07/25 13:03:48;;;;;;;21.40;16.77;;;;;;;;;;4967098;28;20043;-71
2021/07/25 13:06:15;;;;;;;19.73;17.40;;;;;;;;;;4971664;28;20034;-71
2021/07/25 13:08:41;;;;;;;20.23;16.90;;;;;;;;;;4971755;28;20026;-71
2021/07/25 13:11:08;;;;;;;18.08;15.95;;;;;;;;;;4970260;28;20115;-71
2021/07/25 13:13:35;;;;;;;17.23;14.95;;;;;;;;;;4971544;28;20070;-71
2021/07/25 13:16:01;;;;;;;20.08;15.80;;;;;;;;;;4969160;28;20082;-71
2021/07/25 13:18:27;;;;;;;22.17;16.50;;;;;;;;;;4965715;28;20031;-70
2021/07/25 13:20:53;;;;;;;21.05;15.88;;;;;;;;;;4967116;28;20752;-71
2021/07/25 13:23:19;;;;;;;20.98;16.42;;;;;;;;;;4971033;28;20106;-71
2021/07/25 13:25:45;;;;;;;21.90;16.42;;;;;;;;;;4970961;28;20362;-70
2021/07/25 13:28:11;;;;;;;20.90;16.70;;;;;;;;;;4970697;28;20038;-71
2021/07/25 13:30:37;;;;;;;24.75;17.92;;;;;;;;;;4971772;28;20034;-71
2021/07/25 13:33:03;;;;;;;22.73;16.63;;;;;;;;;;4970633;28;20031;-71
2021/07/25 13:35:29;;;;;;;20.00;16.75;;;;;;;;;;4970870;28;20026;-71
2021/07/25 13:37:55;;;;;;;19.75;14.35;;;;;;;;;;4971702;28;20392;-71
2021/07/25 13:40:22;;;;;;;21.85;16.67;;;;;;;;;;4968742;28;20038;-71
2021/07/25 13:42:48;;;;;;;15.98;14.05;;;;;;;;;;4968339;28;20023;-71
2021/07/25 13:45:14;;;;;;;14.65;12.48;;;;;;;;;;4971018;28;20033;-71
2021/07/25 13:47:40;;;;;;;17.42;14.57;;;;;;;;;;4971021;28;20066;-71
2021/07/25 13:50:06;;;;;;;19.85;15.18;;;;;;;;;;4971066;28;20023;-71
2021/07/25 13:52:33;;;;;;;18.60;14.00;;;;;;;;;;4970705;28;20547;-71
2021/07/25 13:54:59;;;;;;;19.27;14.93;;;;;;;;;;4971498;28;20373;-71
2021/07/25 13:57:25;;;;;;;18.08;13.63;;;;;;;;;;4967680;28;20114;-71
2021/07/25 13:59:51;;;;;;;19.65;15.05;;;;;;;;;;4970734;28;20102;-71
2021/07/25 14:02:16;;;;;;;21.80;18.48;;;;;;;;;;4970753;28;20085;-70
2021/07/25 14:04:42;;;;;;;26.17;18.45;;;;;;;;;;4970751;28;20026;-71
2021/07/25 14:07:08;;;;;;;24.70;18.67;;;;;;;;;;4970917;28;20015;-71
2021/07/25 14:09:34;;;;;;;25.63;21.02;;;;;;;;;;4962493;28;20031;-70
2021/07/25 14:12:00;;;;;;;25.65;19.33;;;;;;;;;;4970177;28;20027;-70
2021/07/25 14:14:30;;;;;;;22.92;20.35;;;;;;;;;;4967602;28;20035;-70
2021/07/25 14:16:59;;;;;;;25.08;20.73;;;;;;;;;;4969199;28;20501;-71
2021/07/25 14:19:25;;;;;;;23.67;19.85;;;;;;;;;;4968537;28;20019;-71
2021/07/25 14:21:51;;;;;;;20.92;18.67;;;;;;;;;;4968429;28;20034;-71
2021/07/25 14:24:17;;;;;;;25.55;19.67;;;;;;;;;;4974443;28;20431;-70
2021/07/25 14:26:44;;;;;;;23.58;19.48;;;;;;;;;;4966542;28;20026;-70